sensor_id;sensor_type;location;lat;lon;timestamp;temperature;humidity
51902;DHT22;37929;53.218;6.548;2022-08-19T00:00:40;17.20;99.90
51902;DHT22;37929;53.218;6.548;2022-08-19T00:03:06;17.20;99.90
51902;DHT22;37929;53.218;6.548;2022-08-19T00:05:33;17.20;99.90
51902;DHT22;37929;53.218;6.548;2022-08-19T00:07:59;17.30;99.90
51902;DHT22;37929;53.218;6.548;2022-08-19T00:10:25;17.30;99.90
51902;DHT22;37929;53.218;6.548;2022-08-19T00:12:51;17.30;99.90
51902;DHT22;37929;53.218;6.548;2022-08-19T00:15:19;17.30;99.90
51902;DHT22;37929;53.218;6.548;2022-08-19T00:17:45;17.30;99.90
51902;DHT22;37929;53.218;6.548;2022-08-19T00:20:16;17.30;99.90
51902;DHT22;37929;53.218;6.548;2022-08-19T00:22:43;17.30;99.90
51902;DHT22;37929;53.218;6.548;2022-08-19T00:25:10;17.30;99.90
51902;DHT22;37929;53.218;6.548;2022-08-19T00:27:38;17.20;99.90
51902;DHT22;37929;53.218;6.548;2022-08-19T00:30:08;17.20;99.90
51902;DHT22;37929;53.218;6.548;2022-08-19T00:32:36;17.20;99.90
51902;DHT22;37929;53.218;6.548;2022-08-19T00:35:04;17.20;99.90
51902;DHT22;37929;53.218;6.548;2022-08-19T00:37:30;17.20;99.90
51902;DHT22;37929;53.218;6.548;2022-08-19T00:40:00;17.20;99.90
51902;DHT22;37929;53.218;6.548;2022-08-19T00:42:27;17.20;99.90
51902;DHT22;37929;53.218;6.548;2022-08-19T00:44:54;17.20;99.90
51902;DHT22;37929;53.218;6.548;2022-08-19T00:47:20;17.20;99.90
51902;DHT22;37929;53.218;6.548;2022-08-19T00:49:52;17.20;99.90
51902;DHT22;37929;53.218;6.548;2022-08-19T00:52:37;17.10;99.90
51902;DHT22;37929;53.218;6.548;2022-08-19T00:55:06;17.10;99.90
51902;DHT22;37929;53.218;6.548;2022-08-19T00:57:39;17.10;99.90
51902;DHT22;37929;53.218;6.548;2022-08-19T01:00:09;17.50;99.90
51902;DHT22;37929;53.218;6.548;2022-08-19T01:02:38;17.10;99.90
51902;DHT22;37929;53.218;6.548;2022-08-19T01:05:11;17.00;99.90
51902;DHT22;37929;53.218;6.548;2022-08-19T01:07:39;17.00;99.90
51902;DHT22;37929;53.218;6.548;2022-08-19T01:10:09;17.00;99.90
51902;DHT22;37929;53.218;6.548;2022-08-19T01:12:36;16.90;99.90
51902;DHT22;37929;53.218;6.548;2022-08-19T01:15:03;16.90;99.90
51902;DHT22;37929;53.218;6.548;2022-08-19T01:17:29;16.90;99.90
51902;DHT22;37929;53.218;6.548;2022-08-19T01:19:55;16.90;99.90
51902;DHT22;37929;53.218;6.548;2022-08-19T01:22:27;16.80;99.90
51902;DHT22;37929;53.218;6.548;2022-08-19T01:24:54;16.90;99.90
51902;DHT22;37929;53.218;6.548;2022-08-19T01:27:19;16.80;99.90
51902;DHT22;37929;53.218;6.548;2022-08-19T01:29:46;16.80;99.90
51902;DHT22;37929;53.218;6.548;2022-08-19T01:32:14;16.80;99.90
51902;DHT22;37929;53.218;6.548;2022-08-19T01:34:40;16.80;99.90
51902;DHT22;37929;53.218;6.548;2022-08-19T01:37:07;16.70;99.90
51902;DHT22;37929;53.218;6.548;2022-08-19T01:39:37;16.80;99.90
51902;DHT22;37929;53.218;6.548;2022-08-19T01:42:03;16.80;99.90
51902;DHT22;37929;53.218;6.548;2022-08-19T01:44:29;16.80;99.90
51902;DHT22;37929;53.218;6.548;2022-08-19T01:46:56;16.70;99.90
51902;DHT22;37929;53.218;6.548;2022-08-19T01:49:23;16.70;99.90
51902;DHT22;37929;53.218;6.548;2022-08-19T01:51:50;16.70;99.90
51902;DHT22;37929;53.218;6.548;2022-08-19T01:54:18;16.80;99.90
51902;DHT22;37929;53.218;6.548;2022-08-19T01:56:46;16.70;99.90
51902;DHT22;37929;53.218;6.548;2022-08-19T01:59:16;16.80;99.90
51902;DHT22;37929;53.218;6.548;2022-08-19T02:01:43;16.70;99.90
51902;DHT22;37929;53.218;6.548;2022-08-19T02:04:09;16.70;99.90
51902;DHT22;37929;53.218;6.548;2022-08-19T02:06:34;16.70;99.90
51902;DHT22;37929;53.218;6.548;2022-08-19T02:09:00;16.70;99.90
51902;DHT22;37929;53.218;6.548;2022-08-19T02:11:32;16.70;99.90
51902;DHT22;37929;53.218;6.548;2022-08-19T02:14:00;16.70;99.90
51902;DHT22;37929;53.218;6.548;2022-08-19T02:16:28;16.70;99.90
51902;DHT22;37929;53.218;6.548;2022-08-19T02:18:53;16.70;99.90
51902;DHT22;37929;53.218;6.548;2022-08-19T02:21:22;16.70;99.90
51902;DHT22;37929;53.218;6.548;2022-08-19T02:23:49;16.70;99.90
51902;DHT22;37929;53.218;6.548;2022-08-19T02:26:17;16.70;99.90
51902;DHT22;37929;53.218;6.548;2022-08-19T02:28:44;16.70;99.90
51902;DHT22;37929;53.218;6.548;2022-08-19T02:31:16;16.70;99.90
51902;DHT22;37929;53.218;6.548;2022-08-19T02:33:43;16.70;99.90
51902;DHT22;37929;53.218;6.548;2022-08-19T02:36:11;16.60;99.90
51902;DHT22;37929;53.218;6.548;2022-08-19T02:38:39;16.60;99.90
51902;DHT22;37929;53.218;6.548;2022-08-19T02:41:15;16.50;99.90
51902;DHT22;37929;53.218;6.548;2022-08-19T02:43:42;16.50;99.90
51902;DHT22;37929;53.218;6.548;2022-08-19T02:46:20;16.50;99.90
51902;DHT22;37929;53.218;6.548;2022-08-19T02:48:52;16.50;99.90
51902;DHT22;37929;53.218;6.548;2022-08-19T02:51:32;16.50;99.90
51902;DHT22;37929;53.218;6.548;2022-08-19T02:53:58;16.40;99.90
51902;DHT22;37929;53.218;6.548;2022-08-19T02:56:26;16.40;99.90
51902;DHT22;37929;53.218;6.548;2022-08-19T02:58:54;16.40;99.90
51902;DHT22;37929;53.218;6.548;2022-08-19T03:01:22;16.40;99.90
51902;DHT22;37929;53.218;6.548;2022-08-19T03:03:48;16.30;99.90
51902;DHT22;37929;53.218;6.548;2022-08-19T03:06:15;16.30;99.90
51902;DHT22;37929;53.218;6.548;2022-08-19T03:08:43;16.30;99.90
51902;DHT22;37929;53.218;6.548;2022-08-19T03:11:21;16.30;99.90
51902;DHT22;37929;53.218;6.548;2022-08-19T03:13:48;16.30;99.90
51902;DHT22;37929;53.218;6.548;2022-08-19T03:16:17;16.30;99.90
51902;DHT22;37929;53.218;6.548;2022-08-19T03:18:44;16.30;99.90
51902;DHT22;37929;53.218;6.548;2022-08-19T03:21:21;16.30;99.90
51902;DHT22;37929;53.218;6.548;2022-08-19T03:23:54;16.30;99.90
51902;DHT22;37929;53.218;6.548;2022-08-19T03:26:20;16.20;99.90
51902;DHT22;37929;53.218;6.548;2022-08-19T03:28:46;16.20;99.90
51902;DHT22;37929;53.218;6.548;2022-08-19T03:31:17;16.40;99.90
51902;DHT22;37929;53.218;6.548;2022-08-19T03:33:44;16.20;99.90
51902;DHT22;37929;53.218;6.548;2022-08-19T03:36:16;16.20;99.90
51902;DHT22;37929;53.218;6.548;2022-08-19T03:38:47;16.30;99.90
51902;DHT22;37929;53.218;6.548;2022-08-19T03:41:17;16.20;99.90
51902;DHT22;37929;53.218;6.548;2022-08-19T03:43:43;16.30;99.90
51902;DHT22;37929;53.218;6.548;2022-08-19T03:46:19;16.20;99.90
51902;DHT22;37929;53.218;6.548;2022-08-19T03:48:50;16.20;99.90
51902;DHT22;37929;53.218;6.548;2022-08-19T03:51:31;16.20;99.90
51902;DHT22;37929;53.218;6.548;2022-08-19T03:53:58;16.20;99.90
51902;DHT22;37929;53.218;6.548;2022-08-19T03:56:26;16.20;99.90
51902;DHT22;37929;53.218;6.548;2022-08-19T03:58:54;16.20;99.90
51902;DHT22;37929;53.218;6.548;2022-08-19T04:01:23;16.20;99.90
51902;DHT22;37929;53.218;6.548;2022-08-19T04:03:49;16.20;99.90
51902;DHT22;37929;53.218;6.548;2022-08-19T04:06:19;16.10;99.90
51902;DHT22;37929;53.218;6.548;2022-08-19T04:08:47;16.20;99.90
51902;DHT22;37929;53.218;6.548;2022-08-19T04:11:15;16.10;99.90
51902;DHT22;37929;53.218;6.548;2022-08-19T04:13:41;16.10;99.90
51902;DHT22;37929;53.218;6.548;2022-08-19T04:16:11;16.40;99.90
51902;DHT22;37929;53.218;6.548;2022-08-19T04:18:38;16.10;99.90
51902;DHT22;37929;53.218;6.548;2022-08-19T04:21:05;16.10;99.90
51902;DHT22;37929;53.218;6.548;2022-08-19T04:23:34;16.00;99.90
51902;DHT22;37929;53.218;6.548;2022-08-19T04:26:02;16.10;99.90
51902;DHT22;37929;53.218;6.548;2022-08-19T04:28:28;16.10;99.90
51902;DHT22;37929;53.218;6.548;2022-08-19T04:30:54;16.10;99.90
51902;DHT22;37929;53.218;6.548;2022-08-19T04:33:25;16.10;99.90
51902;DHT22;37929;53.218;6.548;2022-08-19T04:35:52;16.10;99.90
51902;DHT22;37929;53.218;6.548;2022-08-19T04:38:19;16.10;99.90
51902;DHT22;37929;53.218;6.548;2022-08-19T04:40:47;16.10;99.90
51902;DHT22;37929;53.218;6.548;2022-08-19T04:43:33;16.20;99.90
51902;DHT22;37929;53.218;6.548;2022-08-19T04:46:05;16.30;99.90
51902;DHT22;37929;53.218;6.548;2022-08-19T04:48:31;16.20;99.90
51902;DHT22;37929;53.218;6.548;2022-08-19T04:50:58;16.20;99.90
51902;DHT22;37929;53.218;6.548;2022-08-19T04:53:25;16.20;99.90
51902;DHT22;37929;53.218;6.548;2022-08-19T04:55:52;16.10;99.90
51902;DHT22;37929;53.218;6.548;2022-08-19T04:58:18;16.20;99.90
51902;DHT22;37929;53.218;6.548;2022-08-19T05:00:44;16.20;99.90
51902;DHT22;37929;53.218;6.548;2022-08-19T05:03:10;16.20;99.90
51902;DHT22;37929;53.218;6.548;2022-08-19T05:05:44;16.20;99.90
51902;DHT22;37929;53.218;6.548;2022-08-19T05:08:12;16.20;99.90
51902;DHT22;37929;53.218;6.548;2022-08-19T05:10:39;16.20;99.90
51902;DHT22;37929;53.218;6.548;2022-08-19T05:13:06;16.30;99.90
51902;DHT22;37929;53.218;6.548;2022-08-19T05:15:34;16.30;99.90
51902;DHT22;37929;53.218;6.548;2022-08-19T05:18:01;16.30;99.90
51902;DHT22;37929;53.218;6.548;2022-08-19T05:20:45;16.20;99.90
51902;DHT22;37929;53.218;6.548;2022-08-19T05:23:29;16.20;99.90
51902;DHT22;37929;53.218;6.548;2022-08-19T05:25:55;16.20;99.90
51902;DHT22;37929;53.218;6.548;2022-08-19T05:28:21;16.20;99.90
51902;DHT22;37929;53.218;6.548;2022-08-19T05:30:48;16.20;99.90
51902;DHT22;37929;53.218;6.548;2022-08-19T05:33:16;16.30;99.90
51902;DHT22;37929;53.218;6.548;2022-08-19T05:35:42;16.20;99.90
51902;DHT22;37929;53.218;6.548;2022-08-19T05:38:10;16.20;99.90
51902;DHT22;37929;53.218;6.548;2022-08-19T05:40:37;16.20;99.90
51902;DHT22;37929;53.218;6.548;2022-08-19T05:43:05;16.20;99.90
51902;DHT22;37929;53.218;6.548;2022-08-19T05:45:32;16.20;99.90
51902;DHT22;37929;53.218;6.548;2022-08-19T05:47:57;16.20;99.90
51902;DHT22;37929;53.218;6.548;2022-08-19T05:50:24;16.30;99.90
51902;DHT22;37929;53.218;6.548;2022-08-19T05:52:52;16.30;99.90
51902;DHT22;37929;53.218;6.548;2022-08-19T05:55:18;16.40;99.90
51902;DHT22;37929;53.218;6.548;2022-08-19T05:57:45;16.40;99.90
51902;DHT22;37929;53.218;6.548;2022-08-19T06:00:12;16.50;99.90
51902;DHT22;37929;53.218;6.548;2022-08-19T06:02:39;16.40;99.90
51902;DHT22;37929;53.218;6.548;2022-08-19T06:05:06;16.60;99.90
51902;DHT22;37929;53.218;6.548;2022-08-19T06:07:36;16.60;99.90
51902;DHT22;37929;53.218;6.548;2022-08-19T06:10:04;16.70;99.90
51902;DHT22;37929;53.218;6.548;2022-08-19T06:12:31;16.70;99.90
51902;DHT22;37929;53.218;6.548;2022-08-19T06:15:11;16.70;99.90
51902;DHT22;37929;53.218;6.548;2022-08-19T06:17:37;16.80;99.90
51902;DHT22;37929;53.218;6.548;2022-08-19T06:20:09;16.80;99.90
51902;DHT22;37929;53.218;6.548;2022-08-19T06:22:47;16.80;99.90
51902;DHT22;37929;53.218;6.548;2022-08-19T06:25:15;16.90;99.90
51902;DHT22;37929;53.218;6.548;2022-08-19T06:27:43;16.90;99.90
51902;DHT22;37929;53.218;6.548;2022-08-19T06:30:12;17.00;99.90
51902;DHT22;37929;53.218;6.548;2022-08-19T06:32:38;17.00;99.90
51902;DHT22;37929;53.218;6.548;2022-08-19T06:35:05;17.00;99.90
51902;DHT22;37929;53.218;6.548;2022-08-19T06:37:37;17.10;99.90
51902;DHT22;37929;53.218;6.548;2022-08-19T06:40:03;17.10;99.90
51902;DHT22;37929;53.218;6.548;2022-08-19T06:42:29;17.20;99.90
51902;DHT22;37929;53.218;6.548;2022-08-19T06:44:55;17.30;99.90
51902;DHT22;37929;53.218;6.548;2022-08-19T06:47:23;17.30;99.90
51902;DHT22;37929;53.218;6.548;2022-08-19T06:49:49;17.40;99.90
51902;DHT22;37929;53.218;6.548;2022-08-19T06:52:14;17.50;99.90
51902;DHT22;37929;53.218;6.548;2022-08-19T06:54:41;17.50;99.90
51902;DHT22;37929;53.218;6.548;2022-08-19T06:57:07;17.60;99.90
51902;DHT22;37929;53.218;6.548;2022-08-19T06:59:37;17.70;99.90
51902;DHT22;37929;53.218;6.548;2022-08-19T07:02:07;17.80;99.90
51902;DHT22;37929;53.218;6.548;2022-08-19T07:04:34;17.80;99.90
51902;DHT22;37929;53.218;6.548;2022-08-19T07:07:14;17.90;99.90
51902;DHT22;37929;53.218;6.548;2022-08-19T07:09:45;18.00;99.90
51902;DHT22;37929;53.218;6.548;2022-08-19T07:12:12;18.10;99.90
51902;DHT22;37929;53.218;6.548;2022-08-19T07:14:41;18.10;99.90
51902;DHT22;37929;53.218;6.548;2022-08-19T07:17:10;18.30;99.90
51902;DHT22;37929;53.218;6.548;2022-08-19T07:19:42;18.30;99.90
51902;DHT22;37929;53.218;6.548;2022-08-19T07:22:10;18.40;99.90
51902;DHT22;37929;53.218;6.548;2022-08-19T07:24:36;18.50;99.90
51902;DHT22;37929;53.218;6.548;2022-08-19T07:27:03;18.70;99.90
51902;DHT22;37929;53.218;6.548;2022-08-19T07:29:32;18.70;99.90
51902;DHT22;37929;53.218;6.548;2022-08-19T07:32:00;18.90;99.90
51902;DHT22;37929;53.218;6.548;2022-08-19T07:34:27;18.90;99.90
51902;DHT22;37929;53.218;6.548;2022-08-19T07:36:53;19.00;99.90
51902;DHT22;37929;53.218;6.548;2022-08-19T07:39:41;19.10;99.90
51902;DHT22;37929;53.218;6.548;2022-08-19T07:42:09;19.20;99.90
51902;DHT22;37929;53.218;6.548;2022-08-19T07:44:36;19.30;99.90
51902;DHT22;37929;53.218;6.548;2022-08-19T07:47:04;19.40;99.90
51902;DHT22;37929;53.218;6.548;2022-08-19T07:49:30;19.50;99.90
51902;DHT22;37929;53.218;6.548;2022-08-19T07:52:02;19.60;99.90
51902;DHT22;37929;53.218;6.548;2022-08-19T07:54:31;19.70;99.90
51902;DHT22;37929;53.218;6.548;2022-08-19T07:56:59;19.70;99.90
51902;DHT22;37929;53.218;6.548;2022-08-19T07:59:25;19.80;99.90
51902;DHT22;37929;53.218;6.548;2022-08-19T08:01:51;19.80;99.90
51902;DHT22;37929;53.218;6.548;2022-08-19T08:04:18;19.90;99.90
51902;DHT22;37929;53.218;6.548;2022-08-19T08:07:05;20.00;99.90
51902;DHT22;37929;53.218;6.548;2022-08-19T08:09:50;20.10;99.90
51902;DHT22;37929;53.218;6.548;2022-08-19T08:12:25;20.20;99.90
51902;DHT22;37929;53.218;6.548;2022-08-19T08:14:56;20.30;99.90
51902;DHT22;37929;53.218;6.548;2022-08-19T08:17:24;20.40;99.90
51902;DHT22;37929;53.218;6.548;2022-08-19T08:19:51;20.50;99.90
51902;DHT22;37929;53.218;6.548;2022-08-19T08:22:19;20.60;99.90
51902;DHT22;37929;53.218;6.548;2022-08-19T08:25:14;20.70;99.90
51902;DHT22;37929;53.218;6.548;2022-08-19T08:27:42;20.80;99.90
51902;DHT22;37929;53.218;6.548;2022-08-19T08:30:16;20.90;99.90
51902;DHT22;37929;53.218;6.548;2022-08-19T08:32:42;20.90;99.90
51902;DHT22;37929;53.218;6.548;2022-08-19T08:35:12;21.00;99.90
51902;DHT22;37929;53.218;6.548;2022-08-19T08:37:42;21.10;99.90
51902;DHT22;37929;53.218;6.548;2022-08-19T08:40:20;21.20;99.90
51902;DHT22;37929;53.218;6.548;2022-08-19T08:42:54;21.30;99.90
51902;DHT22;37929;53.218;6.548;2022-08-19T08:45:24;21.40;99.90
51902;DHT22;37929;53.218;6.548;2022-08-19T08:47:51;21.40;99.90
51902;DHT22;37929;53.218;6.548;2022-08-19T08:52:56;21.60;99.90
51902;DHT22;37929;53.218;6.548;2022-08-19T08:55:25;21.60;99.90
51902;DHT22;37929;53.218;6.548;2022-08-19T08:57:59;21.80;99.90
51902;DHT22;37929;53.218;6.548;2022-08-19T09:00:26;21.80;99.90
51902;DHT22;37929;53.218;6.548;2022-08-19T09:02:54;21.90;99.90
51902;DHT22;37929;53.218;6.548;2022-08-19T09:05:22;22.00;99.90
51902;DHT22;37929;53.218;6.548;2022-08-19T09:07:58;22.00;99.90
51902;DHT22;37929;53.218;6.548;2022-08-19T09:10:31;22.10;99.90
51902;DHT22;37929;53.218;6.548;2022-08-19T09:15:47;22.30;99.90
51902;DHT22;37929;53.218;6.548;2022-08-19T09:18:14;22.30;99.90
51902;DHT22;37929;53.218;6.548;2022-08-19T09:20:41;22.40;99.90
51902;DHT22;37929;53.218;6.548;2022-08-19T09:23:08;22.50;99.90
51902;DHT22;37929;53.218;6.548;2022-08-19T09:25:36;22.50;99.90
51902;DHT22;37929;53.218;6.548;2022-08-19T09:28:03;22.50;99.90
51902;DHT22;37929;53.218;6.548;2022-08-19T09:30:32;22.50;99.90
51902;DHT22;37929;53.218;6.548;2022-08-19T09:32:59;22.60;99.90
51902;DHT22;37929;53.218;6.548;2022-08-19T09:35:27;22.60;99.90
51902;DHT22;37929;53.218;6.548;2022-08-19T09:37:55;22.60;99.90
51902;DHT22;37929;53.218;6.548;2022-08-19T09:40:23;22.80;99.90
51902;DHT22;37929;53.218;6.548;2022-08-19T09:42:50;22.80;99.90
51902;DHT22;37929;53.218;6.548;2022-08-19T09:45:22;22.90;99.90
51902;DHT22;37929;53.218;6.548;2022-08-19T09:47:52;22.90;99.90
51902;DHT22;37929;53.218;6.548;2022-08-19T09:50:18;23.00;99.90
51902;DHT22;37929;53.218;6.548;2022-08-19T09:52:44;23.10;99.90
51902;DHT22;37929;53.218;6.548;2022-08-19T09:55:11;23.20;99.90
51902;DHT22;37929;53.218;6.548;2022-08-19T09:57:39;23.20;99.90
51902;DHT22;37929;53.218;6.548;2022-08-19T10:00:10;23.30;99.90
51902;DHT22;37929;53.218;6.548;2022-08-19T10:02:39;23.30;99.90
51902;DHT22;37929;53.218;6.548;2022-08-19T10:05:05;23.30;99.90
51902;DHT22;37929;53.218;6.548;2022-08-19T10:07:50;23.30;99.90
51902;DHT22;37929;53.218;6.548;2022-08-19T10:10:16;23.40;99.90
51902;DHT22;37929;53.218;6.548;2022-08-19T10:12:41;23.40;99.90
51902;DHT22;37929;53.218;6.548;2022-08-19T10:15:12;23.50;99.90
51902;DHT22;37929;53.218;6.548;2022-08-19T10:17:41;23.50;99.90
51902;DHT22;37929;53.218;6.548;2022-08-19T10:20:10;23.60;99.90
51902;DHT22;37929;53.218;6.548;2022-08-19T10:22:36;23.70;99.90
51902;DHT22;37929;53.218;6.548;2022-08-19T10:25:04;23.70;99.90
51902;DHT22;37929;53.218;6.548;2022-08-19T10:27:30;23.70;99.90
51902;DHT22;37929;53.218;6.548;2022-08-19T10:29:56;23.70;99.90
51902;DHT22;37929;53.218;6.548;2022-08-19T10:32:25;23.80;99.90
51902;DHT22;37929;53.218;6.548;2022-08-19T10:34:51;23.80;99.90
51902;DHT22;37929;53.218;6.548;2022-08-19T10:37:20;23.80;99.90
51902;DHT22;37929;53.218;6.548;2022-08-19T10:39:46;23.80;99.90
51902;DHT22;37929;53.218;6.548;2022-08-19T10:42:13;23.90;99.90
51902;DHT22;37929;53.218;6.548;2022-08-19T10:44:39;23.90;99.90
51902;DHT22;37929;53.218;6.548;2022-08-19T10:47:05;24.00;99.90
51902;DHT22;37929;53.218;6.548;2022-08-19T10:49:31;24.00;99.90
51902;DHT22;37929;53.218;6.548;2022-08-19T10:51:58;24.10;99.90
51902;DHT22;37929;53.218;6.548;2022-08-19T10:54:48;24.20;99.90
51902;DHT22;37929;53.218;6.548;2022-08-19T10:57:35;24.20;99.90
51902;DHT22;37929;53.218;6.548;2022-08-19T11:00:05;24.20;99.90
51902;DHT22;37929;53.218;6.548;2022-08-19T11:02:31;24.30;99.90
51902;DHT22;37929;53.218;6.548;2022-08-19T11:04:58;24.30;99.90
51902;DHT22;37929;53.218;6.548;2022-08-19T11:07:24;24.30;99.90
51902;DHT22;37929;53.218;6.548;2022-08-19T11:09:55;24.40;99.90
51902;DHT22;37929;53.218;6.548;2022-08-19T11:12:20;24.20;99.90
51902;DHT22;37929;53.218;6.548;2022-08-19T11:14:46;24.40;99.90
51902;DHT22;37929;53.218;6.548;2022-08-19T11:17:13;24.50;99.90
51902;DHT22;37929;53.218;6.548;2022-08-19T11:19:39;24.50;99.90
51902;DHT22;37929;53.218;6.548;2022-08-19T11:22:08;24.50;99.90
51902;DHT22;37929;53.218;6.548;2022-08-19T11:24:36;24.60;99.90
51902;DHT22;37929;53.218;6.548;2022-08-19T11:27:07;24.70;99.90
51902;DHT22;37929;53.218;6.548;2022-08-19T11:29:35;24.70;99.90
51902;DHT22;37929;53.218;6.548;2022-08-19T11:32:09;24.70;99.90
51902;DHT22;37929;53.218;6.548;2022-08-19T11:34:36;25.10;99.90
51902;DHT22;37929;53.218;6.548;2022-08-19T11:37:03;24.80;99.90
51902;DHT22;37929;53.218;6.548;2022-08-19T11:39:30;24.90;99.90
51902;DHT22;37929;53.218;6.548;2022-08-19T11:42:02;25.00;99.90
51902;DHT22;37929;53.218;6.548;2022-08-19T11:44:31;25.20;99.90
51902;DHT22;37929;53.218;6.548;2022-08-19T11:46:57;25.10;99.90
51902;DHT22;37929;53.218;6.548;2022-08-19T11:49:31;25.10;99.90
51902;DHT22;37929;53.218;6.548;2022-08-19T11:52:23;25.10;99.90
51902;DHT22;37929;53.218;6.548;2022-08-19T11:54:49;24.90;99.90
51902;DHT22;37929;53.218;6.548;2022-08-19T11:57:18;24.90;99.90
51902;DHT22;37929;53.218;6.548;2022-08-19T11:59:52;24.90;99.90
51902;DHT22;37929;53.218;6.548;2022-08-19T12:02:18;24.80;99.90
51902;DHT22;37929;53.218;6.548;2022-08-19T12:04:44;24.70;99.90
51902;DHT22;37929;53.218;6.548;2022-08-19T12:07:16;24.70;99.90
51902;DHT22;37929;53.218;6.548;2022-08-19T12:09:42;24.90;99.90
51902;DHT22;37929;53.218;6.548;2022-08-19T12:12:11;24.70;99.90
51902;DHT22;37929;53.218;6.548;2022-08-19T12:14:46;24.70;99.90
51902;DHT22;37929;53.218;6.548;2022-08-19T12:17:12;24.80;99.90
51902;DHT22;37929;53.218;6.548;2022-08-19T12:19:38;24.80;99.90
51902;DHT22;37929;53.218;6.548;2022-08-19T12:22:05;24.90;99.90
51902;DHT22;37929;53.218;6.548;2022-08-19T12:24:33;24.90;99.90
51902;DHT22;37929;53.218;6.548;2022-08-19T12:26:59;24.90;99.90
51902;DHT22;37929;53.218;6.548;2022-08-19T12:29:29;24.80;99.90
51902;DHT22;37929;53.218;6.548;2022-08-19T12:31:57;24.80;99.90
51902;DHT22;37929;53.218;6.548;2022-08-19T12:34:27;24.90;99.90
51902;DHT22;37929;53.218;6.548;2022-08-19T12:36:57;24.90;99.90
51902;DHT22;37929;53.218;6.548;2022-08-19T12:39:42;24.90;99.90
51902;DHT22;37929;53.218;6.548;2022-08-19T12:42:09;24.90;99.90
51902;DHT22;37929;53.218;6.548;2022-08-19T12:44:42;25.00;99.90
51902;DHT22;37929;53.218;6.548;2022-08-19T12:47:18;25.00;99.90
51902;DHT22;37929;53.218;6.548;2022-08-19T12:49:48;25.50;99.90
51902;DHT22;37929;53.218;6.548;2022-08-19T12:52:14;25.10;99.90
51902;DHT22;37929;53.218;6.548;2022-08-19T12:54:47;25.00;99.90
51902;DHT22;37929;53.218;6.548;2022-08-19T12:57:16;25.00;99.90
51902;DHT22;37929;53.218;6.548;2022-08-19T12:59:42;25.00;99.90
51902;DHT22;37929;53.218;6.548;2022-08-19T13:02:30;25.10;99.90
51902;DHT22;37929;53.218;6.548;2022-08-19T13:05:14;24.90;99.90
51902;DHT22;37929;53.218;6.548;2022-08-19T13:07:59;24.90;99.90
51902;DHT22;37929;53.218;6.548;2022-08-19T13:10:37;25.00;99.90
51902;DHT22;37929;53.218;6.548;2022-08-19T13:13:12;24.80;99.90
51902;DHT22;37929;53.218;6.548;2022-08-19T13:15:46;24.60;99.90
51902;DHT22;37929;53.218;6.548;2022-08-19T13:21:18;24.90;99.90
51902;DHT22;37929;53.218;6.548;2022-08-19T13:23:50;24.90;99.90
51902;DHT22;37929;53.218;6.548;2022-08-19T13:26:26;25.00;99.90
51902;DHT22;37929;53.218;6.548;2022-08-19T13:29:13;25.00;99.90
51902;DHT22;37929;53.218;6.548;2022-08-19T13:32:14;24.90;99.90
51902;DHT22;37929;53.218;6.548;2022-08-19T13:35:08;24.90;99.90
51902;DHT22;37929;53.218;6.548;2022-08-19T13:38:12;25.00;99.90
51902;DHT22;37929;53.218;6.548;2022-08-19T13:40:44;24.90;99.90
51902;DHT22;37929;53.218;6.548;2022-08-19T13:43:16;24.90;99.90
51902;DHT22;37929;53.218;6.548;2022-08-19T13:46:07;24.70;99.90
51902;DHT22;37929;53.218;6.548;2022-08-19T13:48:38;24.70;99.90
51902;DHT22;37929;53.218;6.548;2022-08-19T13:51:19;24.50;99.90
51902;DHT22;37929;53.218;6.548;2022-08-19T13:53:47;24.60;99.90
51902;DHT22;37929;53.218;6.548;2022-08-19T13:56:19;24.40;99.90
51902;DHT22;37929;53.218;6.548;2022-08-19T13:58:50;24.30;99.90
51902;DHT22;37929;53.218;6.548;2022-08-19T14:01:23;24.20;99.90
51902;DHT22;37929;53.218;6.548;2022-08-19T14:03:49;24.20;99.90
51902;DHT22;37929;53.218;6.548;2022-08-19T14:06:15;24.20;99.90
51902;DHT22;37929;53.218;6.548;2022-08-19T14:08:42;24.10;99.90
51902;DHT22;37929;53.218;6.548;2022-08-19T14:11:09;24.10;99.90
51902;DHT22;37929;53.218;6.548;2022-08-19T14:13:35;24.00;99.90
51902;DHT22;37929;53.218;6.548;2022-08-19T14:16:09;24.00;99.90
51902;DHT22;37929;53.218;6.548;2022-08-19T14:18:36;24.00;99.90
51902;DHT22;37929;53.218;6.548;2022-08-19T14:21:02;24.00;99.90
51902;DHT22;37929;53.218;6.548;2022-08-19T14:23:33;23.90;99.90
51902;DHT22;37929;53.218;6.548;2022-08-19T14:26:11;23.90;99.90
51902;DHT22;37929;53.218;6.548;2022-08-19T14:28:39;23.90;99.90
51902;DHT22;37929;53.218;6.548;2022-08-19T14:31:12;23.80;99.90
51902;DHT22;37929;53.218;6.548;2022-08-19T14:33:41;23.80;99.90
51902;DHT22;37929;53.218;6.548;2022-08-19T14:36:07;23.90;99.90
51902;DHT22;37929;53.218;6.548;2022-08-19T14:38:33;23.80;99.90
51902;DHT22;37929;53.218;6.548;2022-08-19T14:41:16;24.00;99.90
51902;DHT22;37929;53.218;6.548;2022-08-19T14:43:53;23.90;99.90
51902;DHT22;37929;53.218;6.548;2022-08-19T14:46:22;24.00;99.90
51902;DHT22;37929;53.218;6.548;2022-08-19T14:48:49;23.90;99.90
51902;DHT22;37929;53.218;6.548;2022-08-19T14:51:15;23.90;99.90
51902;DHT22;37929;53.218;6.548;2022-08-19T14:53:41;23.90;99.90
51902;DHT22;37929;53.218;6.548;2022-08-19T14:56:10;24.00;99.90
51902;DHT22;37929;53.218;6.548;2022-08-19T14:58:38;24.00;99.90
51902;DHT22;37929;53.218;6.548;2022-08-19T15:01:07;24.00;99.90
51902;DHT22;37929;53.218;6.548;2022-08-19T15:03:33;24.00;99.90
51902;DHT22;37929;53.218;6.548;2022-08-19T15:06:00;24.10;99.90
51902;DHT22;37929;53.218;6.548;2022-08-19T15:08:28;24.10;99.90
51902;DHT22;37929;53.218;6.548;2022-08-19T15:10:55;24.20;99.90
51902;DHT22;37929;53.218;6.548;2022-08-19T15:13:27;24.20;99.90
51902;DHT22;37929;53.218;6.548;2022-08-19T15:16:00;24.30;99.90
51902;DHT22;37929;53.218;6.548;2022-08-19T15:18:29;24.30;99.90
51902;DHT22;37929;53.218;6.548;2022-08-19T15:20:55;24.40;99.90
51902;DHT22;37929;53.218;6.548;2022-08-19T15:23:23;24.40;99.90
51902;DHT22;37929;53.218;6.548;2022-08-19T15:25:52;24.40;99.90
51902;DHT22;37929;53.218;6.548;2022-08-19T15:28:24;24.40;99.90
51902;DHT22;37929;53.218;6.548;2022-08-19T15:30:50;24.40;99.90
51902;DHT22;37929;53.218;6.548;2022-08-19T15:33:18;24.50;99.90
51902;DHT22;37929;53.218;6.548;2022-08-19T15:35:48;24.50;99.90
51902;DHT22;37929;53.218;6.548;2022-08-19T15:38:17;24.50;99.90
51902;DHT22;37929;53.218;6.548;2022-08-19T15:40:48;24.50;99.90
51902;DHT22;37929;53.218;6.548;2022-08-19T15:43:15;24.40;99.90
51902;DHT22;37929;53.218;6.548;2022-08-19T15:45:43;24.40;99.90
51902;DHT22;37929;53.218;6.548;2022-08-19T15:48:13;24.40;99.90
51902;DHT22;37929;53.218;6.548;2022-08-19T15:50:39;24.40;99.90
51902;DHT22;37929;53.218;6.548;2022-08-19T15:53:11;24.30;99.90